sensor_id;sensor_type;location;lat;lon;timestamp;P1;durP1;ratioP1;P2;durP2;ratioP2
38611;SDS011;24368;52.156;20.788;2023-02-03T00:01:29;3.40;;;3.10;;
38611;SDS011;24368;52.156;20.788;2023-02-03T00:06:31;3.30;;;2.70;;
38611;SDS011;24368;52.156;20.788;2023-02-03T00:11:33;3.30;;;2.50;;
38611;SDS011;24368;52.156;20.788;2023-02-03T00:16:35;2.50;;;2.30;;
38611;SDS011;24368;52.156;20.788;2023-02-03T00:21:37;3.00;;;2.40;;
38611;SDS011;24368;52.156;20.788;2023-02-03T00:26:41;2.70;;;1.80;;
38611;SDS011;24368;52.156;20.788;2023-02-03T00:31:43;2.30;;;2.10;;
38611;SDS011;24368;52.156;20.788;2023-02-03T00:36:45;3.00;;;1.80;;
38611;SDS011;24368;52.156;20.788;2023-02-03T00:41:48;3.00;;;2.10;;
38611;SDS011;24368;52.156;20.788;2023-02-03T00:46:50;2.80;;;2.00;;
38611;SDS011;24368;52.156;20.788;2023-02-03T00:51:52;2.30;;;2.00;;
38611;SDS011;24368;52.156;20.788;2023-02-03T00:56:53;4.20;;;2.30;;
38611;SDS011;24368;52.156;20.788;2023-02-03T01:01:55;4.10;;;2.40;;
38611;SDS011;24368;52.156;20.788;2023-02-03T01:06:57;2.90;;;2.30;;
38611;SDS011;24368;52.156;20.788;2023-02-03T01:12:00;2.50;;;2.10;;
38611;SDS011;24368;52.156;20.788;2023-02-03T01:17:01;2.10;;;1.90;;
38611;SDS011;24368;52.156;20.788;2023-02-03T01:22:03;2.90;;;1.90;;
38611;SDS011;24368;52.156;20.788;2023-02-03T01:27:05;3.70;;;2.30;;
38611;SDS011;24368;52.156;20.788;2023-02-03T01:32:07;4.20;;;2.20;;
38611;SDS011;24368;52.156;20.788;2023-02-03T01:37:08;3.00;;;2.00;;
38611;SDS011;24368;52.156;20.788;2023-02-03T01:42:13;4.70;;;2.00;;
38611;SDS011;24368;52.156;20.788;2023-02-03T01:52:51;3.00;;;1.80;;
38611;SDS011;24368;52.156;20.788;2023-02-03T01:58:01;1.90;;;1.70;;
38611;SDS011;24368;52.156;20.788;2023-02-03T02:03:10;2.00;;;1.80;;
38611;SDS011;24368;52.156;20.788;2023-02-03T02:08:15;2.10;;;1.80;;
38611;SDS011;24368;52.156;20.788;2023-02-03T02:13:20;3.50;;;1.90;;
38611;SDS011;24368;52.156;20.788;2023-02-03T02:18:25;3.80;;;2.10;;
38611;SDS011;24368;52.156;20.788;2023-02-03T02:23:55;2.50;;;2.30;;
38611;SDS011;24368;52.156;20.788;2023-02-03T02:39:55;3.60;;;2.70;;
38611;SDS011;24368;52.156;20.788;2023-02-03T02:45:10;2.30;;;2.10;;
38611;SDS011;24368;52.156;20.788;2023-02-03T02:50:27;4.10;;;2.70;;
38611;SDS011;24368;52.156;20.788;2023-02-03T02:55:35;3.40;;;3.10;;
38611;SDS011;24368;52.156;20.788;2023-02-03T03:00:40;5.40;;;3.50;;
38611;SDS011;24368;52.156;20.788;2023-02-03T03:05:46;3.10;;;2.80;;
38611;SDS011;24368;52.156;20.788;2023-02-03T03:10:52;4.00;;;2.30;;
38611;SDS011;24368;52.156;20.788;2023-02-03T03:15:56;4.10;;;2.90;;
38611;SDS011;24368;52.156;20.788;2023-02-03T03:21:00;3.90;;;2.70;;
38611;SDS011;24368;52.156;20.788;2023-02-03T03:36:57;2.80;;;2.40;;
38611;SDS011;24368;52.156;20.788;2023-02-03T03:42:03;3.50;;;2.60;;
38611;SDS011;24368;52.156;20.788;2023-02-03T03:47:11;3.70;;;3.40;;
38611;SDS011;24368;52.156;20.788;2023-02-03T03:52:21;4.50;;;4.10;;
38611;SDS011;24368;52.156;20.788;2023-02-03T03:57:29;4.20;;;3.20;;
38611;SDS011;24368;52.156;20.788;2023-02-03T04:02:38;4.70;;;3.40;;
38611;SDS011;24368;52.156;20.788;2023-02-03T04:07:42;4.80;;;4.10;;
38611;SDS011;24368;52.156;20.788;2023-02-03T04:12:45;5.10;;;4.10;;
38611;SDS011;24368;52.156;20.788;2023-02-03T04:17:47;5.00;;;3.40;;
38611;SDS011;24368;52.156;20.788;2023-02-03T04:22:49;3.40;;;2.80;;
38611;SDS011;24368;52.156;20.788;2023-02-03T04:27:51;3.40;;;2.90;;
38611;SDS011;24368;52.156;20.788;2023-02-03T04:32:53;4.40;;;3.50;;
38611;SDS011;24368;52.156;20.788;2023-02-03T04:37:55;5.60;;;3.40;;
38611;SDS011;24368;52.156;20.788;2023-02-03T04:42:56;6.30;;;4.80;;
38611;SDS011;24368;52.156;20.788;2023-02-03T04:47:58;5.40;;;3.80;;
38611;SDS011;24368;52.156;20.788;2023-02-03T04:53:00;5.00;;;3.40;;
38611;SDS011;24368;52.156;20.788;2023-02-03T04:58:02;6.60;;;4.60;;
38611;SDS011;24368;52.156;20.788;2023-02-03T05:03:03;6.90;;;5.10;;
38611;SDS011;24368;52.156;20.788;2023-02-03T05:08:05;7.50;;;4.50;;
38611;SDS011;24368;52.156;20.788;2023-02-03T05:13:07;5.90;;;3.90;;
38611;SDS011;24368;52.156;20.788;2023-02-03T05:18:08;5.90;;;3.90;;
38611;SDS011;24368;52.156;20.788;2023-02-03T05:23:10;5.10;;;3.80;;
38611;SDS011;24368;52.156;20.788;2023-02-03T05:28:12;7.00;;;4.30;;
38611;SDS011;24368;52.156;20.788;2023-02-03T05:33:13;5.30;;;3.80;;
38611;SDS011;24368;52.156;20.788;2023-02-03T05:38:15;4.60;;;3.90;;
38611;SDS011;24368;52.156;20.788;2023-02-03T05:43:17;5.00;;;3.90;;
38611;SDS011;24368;52.156;20.788;2023-02-03T16:16:39;8.00;;;6.30;;
38611;SDS011;24368;52.156;20.788;2023-02-03T16:21:55;9.70;;;7.20;;
38611;SDS011;24368;52.156;20.788;2023-02-03T16:32:25;11.50;;;7.30;;
38611;SDS011;24368;52.156;20.788;2023-02-03T16:37:46;8.60;;;6.90;;
38611;SDS011;24368;52.156;20.788;2023-02-03T16:43:11;7.60;;;6.40;;
38611;SDS011;24368;52.156;20.788;2023-02-03T16:48:32;7.30;;;6.60;;
38611;SDS011;24368;52.156;20.788;2023-02-03T16:53:53;8.60;;;6.80;;
38611;SDS011;24368;52.156;20.788;2023-02-03T16:58:55;9.60;;;7.70;;
38611;SDS011;24368;52.156;20.788;2023-02-03T17:03:57;9.20;;;7.00;;
38611;SDS011;24368;52.156;20.788;2023-02-03T17:08:59;11.00;;;8.30;;
38611;SDS011;24368;52.156;20.788;2023-02-03T17:14:00;8.90;;;7.40;;
38611;SDS011;24368;52.156;20.788;2023-02-03T17:19:04;10.60;;;7.60;;
38611;SDS011;24368;52.156;20.788;2023-02-03T17:24:05;8.80;;;7.30;;
38611;SDS011;24368;52.156;20.788;2023-02-03T17:29:10;11.10;;;8.60;;
38611;SDS011;24368;52.156;20.788;2023-02-03T17:34:30;10.10;;;8.20;;
38611;SDS011;24368;52.156;20.788;2023-02-03T17:57:13;8.60;;;7.70;;
38611;SDS011;24368;52.156;20.788;2023-02-03T18:02:35;10.00;;;7.80;;
38611;SDS011;24368;52.156;20.788;2023-02-03T18:07:36;8.60;;;7.40;;
38611;SDS011;24368;52.156;20.788;2023-02-03T18:12:37;9.60;;;7.10;;
38611;SDS011;24368;52.156;20.788;2023-02-03T18:17:38;11.70;;;8.20;;
38611;SDS011;24368;52.156;20.788;2023-02-03T18:22:40;23.90;;;18.70;;
38611;SDS011;24368;52.156;20.788;2023-02-03T18:27:43;11.90;;;9.50;;
38611;SDS011;24368;52.156;20.788;2023-02-03T18:32:44;12.30;;;10.40;;
38611;SDS011;24368;52.156;20.788;2023-02-03T18:37:50;13.50;;;10.40;;
38611;SDS011;24368;52.156;20.788;2023-02-03T18:42:51;14.00;;;10.60;;
38611;SDS011;24368;52.156;20.788;2023-02-03T18:47:59;13.40;;;11.20;;
38611;SDS011;24368;52.156;20.788;2023-02-03T18:53:00;14.50;;;11.90;;
38611;SDS011;24368;52.156;20.788;2023-02-03T18:58:02;15.00;;;12.20;;
38611;SDS011;24368;52.156;20.788;2023-02-03T19:03:04;14.70;;;11.70;;
38611;SDS011;24368;52.156;20.788;2023-02-03T19:08:05;17.20;;;12.20;;
38611;SDS011;24368;52.156;20.788;2023-02-03T19:13:07;14.50;;;12.20;;
38611;SDS011;24368;52.156;20.788;2023-02-03T19:18:08;13.10;;;10.40;;
38611;SDS011;24368;52.156;20.788;2023-02-03T19:23:10;13.20;;;11.40;;
38611;SDS011;24368;52.156;20.788;2023-02-03T19:28:11;16.10;;;11.40;;
38611;SDS011;24368;52.156;20.788;2023-02-03T19:33:12;12.80;;;11.00;;
38611;SDS011;24368;52.156;20.788;2023-02-03T19:38:14;13.10;;;11.20;;
38611;SDS011;24368;52.156;20.788;2023-02-03T19:43:17;12.30;;;9.70;;
38611;SDS011;24368;52.156;20.788;2023-02-03T19:48:18;15.00;;;10.70;;
38611;SDS011;24368;52.156;20.788;2023-02-03T19:53:19;15.60;;;12.40;;
38611;SDS011;24368;52.156;20.788;2023-02-03T19:58:21;15.40;;;13.00;;
38611;SDS011;24368;52.156;20.788;2023-02-03T20:03:23;16.70;;;14.40;;
38611;SDS011;24368;52.156;20.788;2023-02-03T20:08:24;20.90;;;16.40;;
38611;SDS011;24368;52.156;20.788;2023-02-03T20:13:25;17.10;;;15.30;;
38611;SDS011;24368;52.156;20.788;2023-02-03T20:18:26;20.70;;;16.00;;
38611;SDS011;24368;52.156;20.788;2023-02-03T20:23:27;18.30;;;16.50;;
38611;SDS011;24368;52.156;20.788;2023-02-03T20:28:29;21.70;;;18.40;;
38611;SDS011;24368;52.156;20.788;2023-02-03T20:33:32;20.70;;;18.30;;
38611;SDS011;24368;52.156;20.788;2023-02-03T20:38:33;21.40;;;18.00;;
38611;SDS011;24368;52.156;20.788;2023-02-03T20:43:34;17.60;;;15.10;;
38611;SDS011;24368;52.156;20.788;2023-02-03T20:48:38;16.00;;;13.80;;
38611;SDS011;24368;52.156;20.788;2023-02-03T20:53:39;15.40;;;13.80;;
38611;SDS011;24368;52.156;20.788;2023-02-03T20:58:41;18.70;;;14.40;;
38611;SDS011;24368;52.156;20.788;2023-02-03T21:03:45;16.70;;;14.50;;
38611;SDS011;24368;52.156;20.788;2023-02-03T21:09:16;16.20;;;13.10;;
38611;SDS011;24368;52.156;20.788;2023-02-03T21:14:23;14.90;;;12.90;;
38611;SDS011;24368;52.156;20.788;2023-02-03T21:19:29;19.50;;;14.60;;
38611;SDS011;24368;52.156;20.788;2023-02-03T21:24:32;19.90;;;14.80;;
38611;SDS011;24368;52.156;20.788;2023-02-03T21:29:37;20.50;;;14.70;;
38611;SDS011;24368;52.156;20.788;2023-02-03T21:34:43;21.00;;;14.20;;
38611;SDS011;24368;52.156;20.788;2023-02-03T21:39:45;18.70;;;14.50;;
38611;SDS011;24368;52.156;20.788;2023-02-03T21:44:47;17.00;;;14.20;;
38611;SDS011;24368;52.156;20.788;2023-02-03T21:49:48;19.80;;;15.60;;
38611;SDS011;24368;52.156;20.788;2023-02-03T21:54:49;17.70;;;13.80;;
38611;SDS011;24368;52.156;20.788;2023-02-03T21:59:50;15.90;;;13.70;;
38611;SDS011;24368;52.156;20.788;2023-02-03T22:04:51;17.60;;;14.50;;
38611;SDS011;24368;52.156;20.788;2023-02-03T22:09:53;16.50;;;14.50;;
38611;SDS011;24368;52.156;20.788;2023-02-03T22:14:54;19.10;;;14.10;;
38611;SDS011;24368;52.156;20.788;2023-02-03T22:19:55;21.20;;;15.60;;
38611;SDS011;24368;52.156;20.788;2023-02-03T22:24:56;18.30;;;13.70;;
38611;SDS011;24368;52.156;20.788;2023-02-03T22:29:57;17.70;;;13.80;;
38611;SDS011;24368;52.156;20.788;2023-02-03T22:34:58;19.80;;;14.50;;
38611;SDS011;24368;52.156;20.788;2023-02-03T22:40:00;17.90;;;15.20;;
38611;SDS011;24368;52.156;20.788;2023-02-03T22:45:01;19.00;;;14.40;;
38611;SDS011;24368;52.156;20.788;2023-02-03T22:50:03;19.00;;;13.80;;
38611;SDS011;24368;52.156;20.788;2023-02-03T22:55:06;16.90;;;13.60;;
38611;SDS011;24368;52.156;20.788;2023-02-03T23:00:09;15.50;;;13.70;;
38611;SDS011;24368;52.156;20.788;2023-02-03T23:05:11;16.80;;;13.40;;
38611;SDS011;24368;52.156;20.788;2023-02-03T23:10:14;15.00;;;12.10;;
38611;SDS011;24368;52.156;20.788;2023-02-03T23:15:17;14.10;;;12.50;;
38611;SDS011;24368;52.156;20.788;2023-02-03T23:20:19;14.70;;;12.90;;
38611;SDS011;24368;52.156;20.788;2023-02-03T23:25:21;14.20;;;12.40;;
38611;SDS011;24368;52.156;20.788;2023-02-03T23:30:22;12.10;;;10.60;;
38611;SDS011;24368;52.156;20.788;2023-02-03T23:35:23;14.60;;;10.80;;
38611;SDS011;24368;52.156;20.788;2023-02-03T23:40:43;11.00;;;9.70;;
38611;SDS011;24368;52.156;20.788;2023-02-03T23:45:44;12.30;;;11.00;;
38611;SDS011;24368;52.156;20.788;2023-02-03T23:50:45;11.00;;;9.80;;
38611;SDS011;24368;52.156;20.788;2023-02-03T23:55:48;12.20;;;9.90;;
